sensor_id;sensor_type;location;lat;lon;timestamp;temperature;humidity
77218;DHT22;66214;51.302;17.068;2024-02-26T00:00:03;3.12;82.35
77218;DHT22;66214;51.302;17.068;2024-02-26T00:02:37;3.08;82.25
77218;DHT22;66214;51.302;17.068;2024-02-26T00:05:06;3.04;82.05
77218;DHT22;66214;51.302;17.068;2024-02-26T00:07:37;3.00;81.80
77218;DHT22;66214;51.302;17.068;2024-02-26T00:10:07;2.96;81.63
77218;DHT22;66214;51.302;17.068;2024-02-26T00:12:36;2.91;81.50
77218;DHT22;66214;51.302;17.068;2024-02-26T00:15:07;2.87;81.70
77218;DHT22;66214;51.302;17.068;2024-02-26T00:17:37;2.85;82.03
77218;DHT22;66214;51.302;17.068;2024-02-26T00:20:06;2.82;82.52
77218;DHT22;66214;51.302;17.068;2024-02-26T00:22:39;2.80;82.87
77218;DHT22;66214;51.302;17.068;2024-02-26T00:25:09;2.80;83.20
77218;DHT22;66214;51.302;17.068;2024-02-26T00:27:39;2.79;83.08
77218;DHT22;66214;51.302;17.068;2024-02-26T00:30:09;2.79;82.85
77218;DHT22;66214;51.302;17.068;2024-02-26T00:32:41;2.79;82.62
77218;DHT22;66214;51.302;17.068;2024-02-26T00:35:13;2.77;82.40
77218;DHT22;66214;51.302;17.068;2024-02-26T00:37:43;2.73;82.25
77218;DHT22;66214;51.302;17.068;2024-02-26T00:40:12;2.69;82.42
77218;DHT22;66214;51.302;17.068;2024-02-26T00:42:41;2.66;82.69
77218;DHT22;66214;51.302;17.068;2024-02-26T00:45:13;2.64;83.12
77218;DHT22;66214;51.302;17.068;2024-02-26T00:47:44;2.63;83.27
77218;DHT22;66214;51.302;17.068;2024-02-26T00:50:15;2.63;83.40
77218;DHT22;66214;51.302;17.068;2024-02-26T00:52:44;2.63;83.43
77218;DHT22;66214;51.302;17.068;2024-02-26T00:55:12;2.60;83.24
77218;DHT22;66214;51.302;17.068;2024-02-26T00:57:41;2.58;83.07
77218;DHT22;66214;51.302;17.068;2024-02-26T01:00:10;2.58;82.97
77218;DHT22;66214;51.302;17.068;2024-02-26T01:06:08;2.59;83.77
77218;DHT22;66214;51.302;17.068;2024-02-26T01:08:38;2.58;83.86
77218;DHT22;66214;51.302;17.068;2024-02-26T01:11:07;2.59;84.14
77218;DHT22;66214;51.302;17.068;2024-02-26T01:13:36;2.59;84.26
77218;DHT22;66214;51.302;17.068;2024-02-26T01:16:05;2.57;84.17
77218;DHT22;66214;51.302;17.068;2024-02-26T01:18:34;2.54;83.85
77218;DHT22;66214;51.302;17.068;2024-02-26T01:21:03;2.52;83.67
77218;DHT22;66214;51.302;17.068;2024-02-26T01:23:34;2.49;83.47
77218;DHT22;66214;51.302;17.068;2024-02-26T01:26:03;2.47;83.33
77218;DHT22;66214;51.302;17.068;2024-02-26T01:28:32;2.51;83.55
77218;DHT22;66214;51.302;17.068;2024-02-26T01:31:01;2.56;83.85
77218;DHT22;66214;51.302;17.068;2024-02-26T01:33:31;2.64;83.97
77218;DHT22;66214;51.302;17.068;2024-02-26T01:35:59;2.74;84.19
77218;DHT22;66214;51.302;17.068;2024-02-26T01:38:28;2.82;84.33
77218;DHT22;66214;51.302;17.068;2024-02-26T01:40:57;2.93;84.49
77218;DHT22;66214;51.302;17.068;2024-02-26T01:43:25;3.03;84.58
77218;DHT22;66214;51.302;17.068;2024-02-26T01:45:54;3.13;84.44
77218;DHT22;66214;51.302;17.068;2024-02-26T01:48:23;3.21;84.24
77218;DHT22;66214;51.302;17.068;2024-02-26T01:50:51;3.29;84.01
77218;DHT22;66214;51.302;17.068;2024-02-26T01:53:21;3.35;83.79
77218;DHT22;66214;51.302;17.068;2024-02-26T01:55:51;3.42;83.67
77218;DHT22;66214;51.302;17.068;2024-02-26T01:58:20;3.52;83.68
77218;DHT22;66214;51.302;17.068;2024-02-26T02:00:50;3.60;83.83
77218;DHT22;66214;51.302;17.068;2024-02-26T02:03:18;3.68;84.11
77218;DHT22;66214;51.302;17.068;2024-02-26T02:05:47;3.79;84.23
77218;DHT22;66214;51.302;17.068;2024-02-26T02:08:15;3.86;84.21
77218;DHT22;66214;51.302;17.068;2024-02-26T02:10:45;3.93;84.19
77218;DHT22;66214;51.302;17.068;2024-02-26T02:13:15;3.97;83.98
77218;DHT22;66214;51.302;17.068;2024-02-26T02:15:43;3.98;83.76
77218;DHT22;66214;51.302;17.068;2024-02-26T02:18:11;3.98;83.55
77218;DHT22;66214;51.302;17.068;2024-02-26T02:20:40;4.00;83.52
77218;DHT22;66214;51.302;17.068;2024-02-26T02:23:09;4.06;83.60
77218;DHT22;66214;51.302;17.068;2024-02-26T02:25:37;4.11;83.73
77218;DHT22;66214;51.302;17.068;2024-02-26T02:28:06;4.15;83.86
77218;DHT22;66214;51.302;17.068;2024-02-26T02:30:34;4.19;84.01
77218;DHT22;66214;51.302;17.068;2024-02-26T02:33:03;4.23;84.18
77218;DHT22;66214;51.302;17.068;2024-02-26T02:35:32;4.26;84.11
77218;DHT22;66214;51.302;17.068;2024-02-26T02:38:00;4.28;84.08
77218;DHT22;66214;51.302;17.068;2024-02-26T02:40:28;4.30;83.91
77218;DHT22;66214;51.302;17.068;2024-02-26T02:42:57;4.31;83.78
77218;DHT22;66214;51.302;17.068;2024-02-26T02:45:27;4.30;83.62
77218;DHT22;66214;51.302;17.068;2024-02-26T02:47:56;4.29;83.65
77218;DHT22;66214;51.302;17.068;2024-02-26T02:50:25;4.31;83.99
77218;DHT22;66214;51.302;17.068;2024-02-26T02:52:54;4.36;84.16
77218;DHT22;66214;51.302;17.068;2024-02-26T02:55:22;4.39;84.29
77218;DHT22;66214;51.302;17.068;2024-02-26T02:57:50;4.42;84.41
77218;DHT22;66214;51.302;17.068;2024-02-26T03:00:20;4.44;84.40
77218;DHT22;66214;51.302;17.068;2024-02-26T03:02:50;4.45;84.35
77218;DHT22;66214;51.302;17.068;2024-02-26T03:05:18;4.49;84.18
77218;DHT22;66214;51.302;17.068;2024-02-26T03:07:47;4.50;84.07
77218;DHT22;66214;51.302;17.068;2024-02-26T03:10:15;4.52;83.93
77218;DHT22;66214;51.302;17.068;2024-02-26T03:12:43;4.53;83.99
77218;DHT22;66214;51.302;17.068;2024-02-26T03:15:11;4.54;84.16
77218;DHT22;66214;51.302;17.068;2024-02-26T03:17:40;4.55;84.31
77218;DHT22;66214;51.302;17.068;2024-02-26T03:20:08;4.56;84.54
77218;DHT22;66214;51.302;17.068;2024-02-26T03:22:41;4.56;84.57
77218;DHT22;66214;51.302;17.068;2024-02-26T03:25:09;4.55;84.49
77218;DHT22;66214;51.302;17.068;2024-02-26T03:27:37;4.53;84.36
77218;DHT22;66214;51.302;17.068;2024-02-26T03:30:05;4.54;84.28
77218;DHT22;66214;51.302;17.068;2024-02-26T03:32:34;4.54;84.17
77218;DHT22;66214;51.302;17.068;2024-02-26T03:35:02;4.54;84.07
77218;DHT22;66214;51.302;17.068;2024-02-26T03:37:30;4.55;84.32
77218;DHT22;66214;51.302;17.068;2024-02-26T03:39:58;4.56;84.38
77218;DHT22;66214;51.302;17.068;2024-02-26T03:42:29;4.57;84.58
77218;DHT22;66214;51.302;17.068;2024-02-26T03:44:58;4.61;84.73
77218;DHT22;66214;51.302;17.068;2024-02-26T03:47:26;4.62;84.84
77218;DHT22;66214;51.302;17.068;2024-02-26T03:49:55;4.62;84.81
77218;DHT22;66214;51.302;17.068;2024-02-26T03:52:23;4.61;84.67
77218;DHT22;66214;51.302;17.068;2024-02-26T03:54:51;4.60;84.57
77218;DHT22;66214;51.302;17.068;2024-02-26T03:57:19;4.58;84.41
77218;DHT22;66214;51.302;17.068;2024-02-26T03:59:48;4.56;84.33
77218;DHT22;66214;51.302;17.068;2024-02-26T04:02:16;4.56;84.52
77218;DHT22;66214;51.302;17.068;2024-02-26T04:04:44;4.57;84.71
77218;DHT22;66214;51.302;17.068;2024-02-26T04:07:14;4.59;84.88
77218;DHT22;66214;51.302;17.068;2024-02-26T04:09:42;4.62;85.06
77218;DHT22;66214;51.302;17.068;2024-02-26T04:12:11;4.65;85.13
77218;DHT22;66214;51.302;17.068;2024-02-26T04:14:39;4.66;85.01
77218;DHT22;66214;51.302;17.068;2024-02-26T04:17:07;4.66;84.87
77218;DHT22;66214;51.302;17.068;2024-02-26T04:19:35;4.65;84.69
77218;DHT22;66214;51.302;17.068;2024-02-26T04:22:03;4.63;84.54
77218;DHT22;66214;51.302;17.068;2024-02-26T04:24:33;4.61;84.37
77218;DHT22;66214;51.302;17.068;2024-02-26T04:27:01;4.59;84.44
77218;DHT22;66214;51.302;17.068;2024-02-26T04:29:29;4.58;84.75
77218;DHT22;66214;51.302;17.068;2024-02-26T04:31:57;4.61;84.94
77218;DHT22;66214;51.302;17.068;2024-02-26T04:34:25;4.61;85.09
77218;DHT22;66214;51.302;17.068;2024-02-26T04:36:54;4.61;85.15
77218;DHT22;66214;51.302;17.068;2024-02-26T04:39:22;4.62;85.11
77218;DHT22;66214;51.302;17.068;2024-02-26T04:41:50;4.63;85.07
77218;DHT22;66214;51.302;17.068;2024-02-26T04:44:18;4.63;84.92
77218;DHT22;66214;51.302;17.068;2024-02-26T04:46:48;4.63;84.79
77218;DHT22;66214;51.302;17.068;2024-02-26T04:49:16;4.64;84.75
77218;DHT22;66214;51.302;17.068;2024-02-26T04:51:44;4.64;84.83
77218;DHT22;66214;51.302;17.068;2024-02-26T04:54:12;4.65;84.95
77218;DHT22;66214;51.302;17.068;2024-02-26T04:56:41;4.65;85.15
77218;DHT22;66214;51.302;17.068;2024-02-26T04:59:09;4.65;85.28
77218;DHT22;66214;51.302;17.068;2024-02-26T05:03:53;4.63;85.48
77218;DHT22;66214;51.302;17.068;2024-02-26T05:06:21;4.64;85.24
77218;DHT22;66214;51.302;17.068;2024-02-26T05:08:49;4.64;85.09
77218;DHT22;66214;51.302;17.068;2024-02-26T05:11:17;4.64;84.98
77218;DHT22;66214;51.302;17.068;2024-02-26T05:13:47;4.64;84.93
77218;DHT22;66214;51.302;17.068;2024-02-26T05:16:15;4.65;85.07
77218;DHT22;66214;51.302;17.068;2024-02-26T05:18:43;4.70;85.44
77218;DHT22;66214;51.302;17.068;2024-02-26T05:21:12;4.73;85.43
77218;DHT22;66214;51.302;17.068;2024-02-26T05:23:40;4.75;85.59
77218;DHT22;66214;51.302;17.068;2024-02-26T05:26:11;4.77;85.59
77218;DHT22;66214;51.302;17.068;2024-02-26T05:28:39;4.77;85.51
77218;DHT22;66214;51.302;17.068;2024-02-26T05:31:07;4.76;85.35
77218;DHT22;66214;51.302;17.068;2024-02-26T05:33:53;4.76;85.22
77218;DHT22;66214;51.302;17.068;2024-02-26T05:36:22;4.75;85.14
77218;DHT22;66214;51.302;17.068;2024-02-26T05:38:50;4.72;85.06
77218;DHT22;66214;51.302;17.068;2024-02-26T05:41:18;4.73;85.22
77218;DHT22;66214;51.302;17.068;2024-02-26T05:43:50;4.76;85.38
77218;DHT22;66214;51.302;17.068;2024-02-26T05:46:19;4.79;85.50
77218;DHT22;66214;51.302;17.068;2024-02-26T05:48:52;4.82;85.82
77218;DHT22;66214;51.302;17.068;2024-02-26T05:51:21;4.85;85.88
77218;DHT22;66214;51.302;17.068;2024-02-26T05:53:49;4.88;85.93
77218;DHT22;66214;51.302;17.068;2024-02-26T05:56:22;4.91;85.70
77218;DHT22;66214;51.302;17.068;2024-02-26T05:58:50;4.91;85.51
77218;DHT22;66214;51.302;17.068;2024-02-26T06:01:19;4.92;85.38
77218;DHT22;66214;51.302;17.068;2024-02-26T06:03:47;4.93;85.25
77218;DHT22;66214;51.302;17.068;2024-02-26T06:06:15;4.94;85.08
77218;DHT22;66214;51.302;17.068;2024-02-26T06:08:44;4.96;85.16
77218;DHT22;66214;51.302;17.068;2024-02-26T06:11:12;4.98;85.34
77218;DHT22;66214;51.302;17.068;2024-02-26T06:13:40;5.01;85.53
77218;DHT22;66214;51.302;17.068;2024-02-26T06:16:08;5.04;85.73
77218;DHT22;66214;51.302;17.068;2024-02-26T06:18:37;5.09;85.71
77218;DHT22;66214;51.302;17.068;2024-02-26T06:21:08;5.13;85.59
77218;DHT22;66214;51.302;17.068;2024-02-26T06:27:08;5.20;85.50
77218;DHT22;66214;51.302;17.068;2024-02-26T06:29:36;5.24;85.34
77218;DHT22;66214;51.302;17.068;2024-02-26T06:32:05;5.29;85.41
77218;DHT22;66214;51.302;17.068;2024-02-26T06:34:34;5.35;85.56
77218;DHT22;66214;51.302;17.068;2024-02-26T06:37:03;5.41;85.61
77218;DHT22;66214;51.302;17.068;2024-02-26T06:39:31;5.48;85.71
77218;DHT22;66214;51.302;17.068;2024-02-26T06:41:59;5.54;85.75
77218;DHT22;66214;51.302;17.068;2024-02-26T06:44:29;5.60;85.57
77218;DHT22;66214;51.302;17.068;2024-02-26T06:46:59;5.65;85.35
77218;DHT22;66214;51.302;17.068;2024-02-26T06:49:28;5.70;85.12
77218;DHT22;66214;51.302;17.068;2024-02-26T06:51:56;5.72;84.91
77218;DHT22;66214;51.302;17.068;2024-02-26T06:54:25;5.75;84.80
77218;DHT22;66214;51.302;17.068;2024-02-26T06:56:53;5.79;84.89
77218;DHT22;66214;51.302;17.068;2024-02-26T06:59:21;5.84;85.06
77218;DHT22;66214;51.302;17.068;2024-02-26T07:01:51;5.88;85.16
77218;DHT22;66214;51.302;17.068;2024-02-26T07:04:19;5.92;85.24
77218;DHT22;66214;51.302;17.068;2024-02-26T07:06:48;5.97;85.16
77218;DHT22;66214;51.302;17.068;2024-02-26T07:09:16;6.01;84.93
77218;DHT22;66214;51.302;17.068;2024-02-26T07:11:44;6.06;84.71
77218;DHT22;66214;51.302;17.068;2024-02-26T07:14:12;6.10;84.55
77218;DHT22;66214;51.302;17.068;2024-02-26T07:16:41;6.16;84.41
77218;DHT22;66214;51.302;17.068;2024-02-26T07:19:09;6.23;84.45
77218;DHT22;66214;51.302;17.068;2024-02-26T07:21:37;6.30;84.53
77218;DHT22;66214;51.302;17.068;2024-02-26T07:27:33;6.48;84.89
77218;DHT22;66214;51.302;17.068;2024-02-26T07:30:01;6.53;84.67
77218;DHT22;66214;51.302;17.068;2024-02-26T07:32:31;6.57;84.35
77218;DHT22;66214;51.302;17.068;2024-02-26T07:34:59;6.63;84.06
77218;DHT22;66214;51.302;17.068;2024-02-26T07:37:27;6.68;83.83
77218;DHT22;66214;51.302;17.068;2024-02-26T07:39:55;6.74;83.59
77218;DHT22;66214;51.302;17.068;2024-02-26T07:42:24;6.81;83.71
77218;DHT22;66214;51.302;17.068;2024-02-26T07:44:52;6.89;83.79
77218;DHT22;66214;51.302;17.068;2024-02-26T07:47:20;6.96;83.84
77218;DHT22;66214;51.302;17.068;2024-02-26T07:49:49;7.05;83.85
77218;DHT22;66214;51.302;17.068;2024-02-26T07:52:17;7.13;83.48
77218;DHT22;66214;51.302;17.068;2024-02-26T07:54:46;7.18;83.15
77218;DHT22;66214;51.302;17.068;2024-02-26T07:57:14;7.23;82.85
77218;DHT22;66214;51.302;17.068;2024-02-26T07:59:45;7.29;82.57
77218;DHT22;66214;51.302;17.068;2024-02-26T08:03:53;7.34;82.38
77218;DHT22;66214;51.302;17.068;2024-02-26T08:06:23;7.42;82.26
77218;DHT22;66214;51.302;17.068;2024-02-26T08:08:52;7.48;82.41
77218;DHT22;66214;51.302;17.068;2024-02-26T08:11:20;7.54;82.44
77218;DHT22;66214;51.302;17.068;2024-02-26T08:13:48;7.60;82.35
77218;DHT22;66214;51.302;17.068;2024-02-26T08:16:16;7.65;82.01
77218;DHT22;66214;51.302;17.068;2024-02-26T08:18:45;7.72;81.65
77218;DHT22;66214;51.302;17.068;2024-02-26T08:21:14;7.78;81.25
77218;DHT22;66214;51.302;17.068;2024-02-26T08:23:43;7.85;81.04
77218;DHT22;66214;51.302;17.068;2024-02-26T08:26:11;7.93;80.84
77218;DHT22;66214;51.302;17.068;2024-02-26T08:28:39;8.02;80.97
77218;DHT22;66214;51.302;17.068;2024-02-26T08:31:07;8.12;80.77
77218;DHT22;66214;51.302;17.068;2024-02-26T08:33:36;8.24;80.45
77218;DHT22;66214;51.302;17.068;2024-02-26T08:36:05;8.34;80.04
77218;DHT22;66214;51.302;17.068;2024-02-26T11:03:50;20.92;46.95
77218;DHT22;66214;51.302;17.068;2024-02-26T11:06:20;21.31;45.60
77218;DHT22;66214;51.302;17.068;2024-02-26T11:08:50;21.42;44.46
77218;DHT22;66214;51.302;17.068;2024-02-26T11:11:19;21.55;44.04
77218;DHT22;66214;51.302;17.068;2024-02-26T11:13:48;21.65;42.59
77218;DHT22;66214;51.302;17.068;2024-02-26T11:16:19;21.49;42.55
77218;DHT22;66214;51.302;17.068;2024-02-26T11:18:49;21.45;42.51
77218;DHT22;66214;51.302;17.068;2024-02-26T11:21:19;21.41;41.74
77218;DHT22;66214;51.302;17.068;2024-02-26T11:23:58;21.51;42.54
77218;DHT22;66214;51.302;17.068;2024-02-26T11:26:26;21.66;42.15
77218;DHT22;66214;51.302;17.068;2024-02-26T11:28:56;21.71;41.41
77218;DHT22;66214;51.302;17.068;2024-02-26T11:31:25;21.80;41.42
77218;DHT22;66214;51.302;17.068;2024-02-26T11:33:55;21.47;41.93
77218;DHT22;66214;51.302;17.068;2024-02-26T11:36:26;21.08;42.58
77218;DHT22;66214;51.302;17.068;2024-02-26T11:38:55;21.13;41.96
77218;DHT22;66214;51.302;17.068;2024-02-26T11:41:23;21.10;41.85
77218;DHT22;66214;51.302;17.068;2024-02-26T11:43:53;21.28;41.07
77218;DHT22;66214;51.302;17.068;2024-02-26T11:46:33;21.51;41.60
77218;DHT22;66214;51.302;17.068;2024-02-26T11:55:31;22.06;40.86
77218;DHT22;66214;51.302;17.068;2024-02-26T11:58:01;22.01;39.32
77218;DHT22;66214;51.302;17.068;2024-02-26T12:00:31;21.90;39.18
77218;DHT22;66214;51.302;17.068;2024-02-26T12:03:00;21.90;38.90
77218;DHT22;66214;51.302;17.068;2024-02-26T12:05:32;22.06;39.82
77218;DHT22;66214;51.302;17.068;2024-02-26T12:08:03;22.41;39.77
77218;DHT22;66214;51.302;17.068;2024-02-26T12:10:39;22.70;38.92
77218;DHT22;66214;51.302;17.068;2024-02-26T12:13:13;22.75;38.53
77218;DHT22;66214;51.302;17.068;2024-02-26T12:15:44;22.80;39.10
77218;DHT22;66214;51.302;17.068;2024-02-26T12:18:23;22.82;38.88
77218;DHT22;66214;51.302;17.068;2024-02-26T12:21:02;22.98;39.21
77218;DHT22;66214;51.302;17.068;2024-02-26T12:23:32;22.96;38.14
77218;DHT22;66214;51.302;17.068;2024-02-26T12:26:01;22.70;37.74
77218;DHT22;66214;51.302;17.068;2024-02-26T12:28:30;22.66;38.31
77218;DHT22;66214;51.302;17.068;2024-02-26T12:31:00;22.84;38.39
77218;DHT22;66214;51.302;17.068;2024-02-26T12:33:30;23.02;38.32
77218;DHT22;66214;51.302;17.068;2024-02-26T12:36:02;23.18;38.17
77218;DHT22;66214;51.302;17.068;2024-02-26T12:38:31;23.32;37.63
77218;DHT22;66214;51.302;17.068;2024-02-26T12:41:00;23.30;37.35
77218;DHT22;66214;51.302;17.068;2024-02-26T12:47:03;22.51;38.44
77218;DHT22;66214;51.302;17.068;2024-02-26T12:49:34;22.36;38.18
77218;DHT22;66214;51.302;17.068;2024-02-26T12:52:08;21.86;38.47
77218;DHT22;66214;51.302;17.068;2024-02-26T12:54:37;21.10;38.56
77218;DHT22;66214;51.302;17.068;2024-02-26T12:57:06;20.37;39.60
77218;DHT22;66214;51.302;17.068;2024-02-26T12:59:37;20.04;40.41
77218;DHT22;66214;51.302;17.068;2024-02-26T13:02:07;19.80;40.75
77218;DHT22;66214;51.302;17.068;2024-02-26T13:04:38;19.44;41.20
77218;DHT22;66214;51.302;17.068;2024-02-26T13:07:06;19.06;41.80
77218;DHT22;66214;51.302;17.068;2024-02-26T13:09:36;18.86;42.32
77218;DHT22;66214;51.302;17.068;2024-02-26T13:12:05;18.68;42.41
77218;DHT22;66214;51.302;17.068;2024-02-26T13:14:35;18.47;42.60
77218;DHT22;66214;51.302;17.068;2024-02-26T13:17:03;18.22;42.98
77218;DHT22;66214;51.302;17.068;2024-02-26T13:19:33;17.99;43.33
77218;DHT22;66214;51.302;17.068;2024-02-26T13:22:03;17.77;43.54
77218;DHT22;66214;51.302;17.068;2024-02-26T13:28:05;17.59;44.11
77218;DHT22;66214;51.302;17.068;2024-02-26T13:30:38;17.48;44.29
77218;DHT22;66214;51.302;17.068;2024-02-26T13:33:10;17.39;44.55
77218;DHT22;66214;51.302;17.068;2024-02-26T13:35:41;17.24;44.67
77218;DHT22;66214;51.302;17.068;2024-02-26T13:38:10;17.10;45.03
77218;DHT22;66214;51.302;17.068;2024-02-26T13:40:40;16.98;45.47
77218;DHT22;66214;51.302;17.068;2024-02-26T13:43:08;16.89;45.65
77218;DHT22;66214;51.302;17.068;2024-02-26T13:45:37;16.77;46.02
77218;DHT22;66214;51.302;17.068;2024-02-26T13:48:07;16.69;46.11
77218;DHT22;66214;51.302;17.068;2024-02-26T13:50:41;16.59;46.36
77218;DHT22;66214;51.302;17.068;2024-02-26T13:53:13;16.47;46.53
77218;DHT22;66214;51.302;17.068;2024-02-26T13:55:43;16.28;46.95
77218;DHT22;66214;51.302;17.068;2024-02-26T13:58:12;16.10;47.20
77218;DHT22;66214;51.302;17.068;2024-02-26T14:03:50;15.79;47.89
77218;DHT22;66214;51.302;17.068;2024-02-26T14:06:19;15.75;48.34
77218;DHT22;66214;51.302;17.068;2024-02-26T14:12:13;15.63;48.79
77218;DHT22;66214;51.302;17.068;2024-02-26T14:14:44;15.63;48.84
77218;DHT22;66214;51.302;17.068;2024-02-26T14:17:16;15.60;48.87
77218;DHT22;66214;51.302;17.068;2024-02-26T14:19:45;15.51;48.99
77218;DHT22;66214;51.302;17.068;2024-02-26T14:22:16;15.38;49.13
77218;DHT22;66214;51.302;17.068;2024-02-26T14:24:44;15.31;49.37
77218;DHT22;66214;51.302;17.068;2024-02-26T14:27:14;15.20;49.67
77218;DHT22;66214;51.302;17.068;2024-02-26T14:29:45;15.04;49.81
77218;DHT22;66214;51.302;17.068;2024-02-26T14:32:15;14.93;50.01
77218;DHT22;66214;51.302;17.068;2024-02-26T14:34:43;14.80;50.42
77218;DHT22;66214;51.302;17.068;2024-02-26T14:37:11;14.72;50.61
77218;DHT22;66214;51.302;17.068;2024-02-26T14:39:40;14.64;50.85
77218;DHT22;66214;51.302;17.068;2024-02-26T14:42:08;14.57;50.96
77218;DHT22;66214;51.302;17.068;2024-02-26T14:44:37;14.50;51.10
77218;DHT22;66214;51.302;17.068;2024-02-26T14:47:05;14.44;51.18
77218;DHT22;66214;51.302;17.068;2024-02-26T14:49:34;14.36;51.49
77218;DHT22;66214;51.302;17.068;2024-02-26T14:52:02;14.31;51.66
77218;DHT22;66214;51.302;17.068;2024-02-26T14:54:31;14.24;51.79
77218;DHT22;66214;51.302;17.068;2024-02-26T14:57:05;14.17;51.81
77218;DHT22;66214;51.302;17.068;2024-02-26T14:59:34;14.09;52.02
77218;DHT22;66214;51.302;17.068;2024-02-26T15:02:04;14.03;52.39
77218;DHT22;66214;51.302;17.068;2024-02-26T15:04:34;13.98;52.41
77218;DHT22;66214;51.302;17.068;2024-02-26T15:07:04;13.91;52.66
77218;DHT22;66214;51.302;17.068;2024-02-26T15:09:33;13.84;52.75
77218;DHT22;66214;51.302;17.068;2024-02-26T15:12:06;13.78;52.97
77218;DHT22;66214;51.302;17.068;2024-02-26T15:14:35;13.72;53.40
77218;DHT22;66214;51.302;17.068;2024-02-26T15:17:04;13.65;53.88
77218;DHT22;66214;51.302;17.068;2024-02-26T15:19:32;13.60;54.03
77218;DHT22;66214;51.302;17.068;2024-02-26T15:22:00;13.57;54.15
77218;DHT22;66214;51.302;17.068;2024-02-26T15:24:29;13.53;54.43
77218;DHT22;66214;51.302;17.068;2024-02-26T15:26:57;13.49;54.62
77218;DHT22;66214;51.302;17.068;2024-02-26T15:29:28;13.44;55.02
77218;DHT22;66214;51.302;17.068;2024-02-26T15:31:57;13.37;55.37
77218;DHT22;66214;51.302;17.068;2024-02-26T15:34:25;13.31;55.73
77218;DHT22;66214;51.302;17.068;2024-02-26T15:36:53;13.25;56.07
77218;DHT22;66214;51.302;17.068;2024-02-26T15:39:22;13.18;56.62
77218;DHT22;66214;51.302;17.068;2024-02-26T15:41:51;13.10;56.78
77218;DHT22;66214;51.302;17.068;2024-02-26T15:44:19;13.02;57.03
77218;DHT22;66214;51.302;17.068;2024-02-26T15:46:47;12.93;57.61
77218;DHT22;66214;51.302;17.068;2024-02-26T15:49:16;12.85;57.86
77218;DHT22;66214;51.302;17.068;2024-02-26T15:51:44;12.80;58.05
77218;DHT22;66214;51.302;17.068;2024-02-26T15:54:13;12.71;58.41
77218;DHT22;66214;51.302;17.068;2024-02-26T15:56:41;12.67;58.48
77218;DHT22;66214;51.302;17.068;2024-02-26T15:59:10;12.61;58.73
77218;DHT22;66214;51.302;17.068;2024-02-26T16:01:39;12.57;58.91
77218;DHT22;66214;51.302;17.068;2024-02-26T16:04:09;12.52;59.05
77218;DHT22;66214;51.302;17.068;2024-02-26T16:06:39;12.47;59.33
77218;DHT22;66214;51.302;17.068;2024-02-26T16:09:12;12.42;59.35
77218;DHT22;66214;51.302;17.068;2024-02-26T16:11:41;12.36;59.56
77218;DHT22;66214;51.302;17.068;2024-02-26T16:17:52;12.27;60.01
77218;DHT22;66214;51.302;17.068;2024-02-26T16:20:16;12.20;60.46
77218;DHT22;66214;51.302;17.068;2024-02-26T16:22:46;12.15;60.79
77218;DHT22;66214;51.302;17.068;2024-02-26T16:25:17;12.10;61.08
77218;DHT22;66214;51.302;17.068;2024-02-26T16:27:46;12.04;61.70
77218;DHT22;66214;51.302;17.068;2024-02-26T16:30:16;11.99;62.39
77218;DHT22;66214;51.302;17.068;2024-02-26T16:32:45;11.98;62.88
77218;DHT22;66214;51.302;17.068;2024-02-26T16:35:13;11.93;63.09
77218;DHT22;66214;51.302;17.068;2024-02-26T16:37:42;11.86;63.28
77218;DHT22;66214;51.302;17.068;2024-02-26T16:40:12;11.82;63.35
77218;DHT22;66214;51.302;17.068;2024-02-26T16:43:07;11.77;63.28
77218;DHT22;66214;51.302;17.068;2024-02-26T16:45:37;11.73;63.40
77218;DHT22;66214;51.302;17.068;2024-02-26T16:48:06;11.69;63.46
77218;DHT22;66214;51.302;17.068;2024-02-26T16:50:36;11.65;63.68
77218;DHT22;66214;51.302;17.068;2024-02-26T16:53:05;11.58;63.93
77218;DHT22;66214;51.302;17.068;2024-02-26T16:55:33;11.55;64.16
77218;DHT22;66214;51.302;17.068;2024-02-26T16:58:01;11.50;64.34
77218;DHT22;66214;51.302;17.068;2024-02-26T17:03:49;11.42;65.40
77218;DHT22;66214;51.302;17.068;2024-02-26T17:06:17;11.44;65.62
77218;DHT22;66214;51.302;17.068;2024-02-26T17:08:51;11.44;65.91
77218;DHT22;66214;51.302;17.068;2024-02-26T17:11:23;11.42;65.92
77218;DHT22;66214;51.302;17.068;2024-02-26T17:13:51;11.42;65.88
77218;DHT22;66214;51.302;17.068;2024-02-26T17:16:19;11.39;65.74
77218;DHT22;66214;51.302;17.068;2024-02-26T17:18:48;11.37;65.74
77218;DHT22;66214;51.302;17.068;2024-02-26T17:24:11;11.28;65.79
77218;DHT22;66214;51.302;17.068;2024-02-26T17:26:40;11.23;65.71
77218;DHT22;66214;51.302;17.068;2024-02-26T17:29:12;11.16;65.95
77218;DHT22;66214;51.302;17.068;2024-02-26T17:31:42;11.09;65.93
77218;DHT22;66214;51.302;17.068;2024-02-26T17:34:11;11.04;66.07
77218;DHT22;66214;51.302;17.068;2024-02-26T17:36:39;10.98;66.41
77218;DHT22;66214;51.302;17.068;2024-02-26T17:39:08;10.96;66.69
77218;DHT22;66214;51.302;17.068;2024-02-26T17:41:37;10.95;66.89
77218;DHT22;66214;51.302;17.068;2024-02-26T17:44:06;10.92;66.78
77218;DHT22;66214;51.302;17.068;2024-02-26T17:46:36;10.89;66.78
77218;DHT22;66214;51.302;17.068;2024-02-26T17:49:05;10.85;66.69
77218;DHT22;66214;51.302;17.068;2024-02-26T17:51:35;10.81;66.75
77218;DHT22;66214;51.302;17.068;2024-02-26T17:54:03;10.76;66.80
77218;DHT22;66214;51.302;17.068;2024-02-26T17:56:31;10.71;66.88
77218;DHT22;66214;51.302;17.068;2024-02-26T17:58:59;10.65;67.00
77218;DHT22;66214;51.302;17.068;2024-02-26T18:01:27;10.62;66.92
77218;DHT22;66214;51.302;17.068;2024-02-26T18:03:56;10.58;66.76
77218;DHT22;66214;51.302;17.068;2024-02-26T18:06:24;10.54;66.96
77218;DHT22;66214;51.302;17.068;2024-02-26T18:08:53;10.51;67.44
77218;DHT22;66214;51.302;17.068;2024-02-26T18:11:21;10.48;67.81
77218;DHT22;66214;51.302;17.068;2024-02-26T18:13:51;10.47;68.29
77218;DHT22;66214;51.302;17.068;2024-02-26T18:16:20;10.45;68.34
77218;DHT22;66214;51.302;17.068;2024-02-26T18:18:50;10.45;68.20
77218;DHT22;66214;51.302;17.068;2024-02-26T18:21:21;10.44;68.08
77218;DHT22;66214;51.302;17.068;2024-02-26T18:23:54;10.43;68.02
77218;DHT22;66214;51.302;17.068;2024-02-26T18:26:25;10.41;67.88
77218;DHT22;66214;51.302;17.068;2024-02-26T18:28:56;10.38;68.07
77218;DHT22;66214;51.302;17.068;2024-02-26T18:31:27;10.34;68.08
77218;DHT22;66214;51.302;17.068;2024-02-26T18:37:24;10.26;68.59
77218;DHT22;66214;51.302;17.068;2024-02-26T18:39:53;10.24;68.92
77218;DHT22;66214;51.302;17.068;2024-02-26T18:42:23;10.23;69.25
77218;DHT22;66214;51.302;17.068;2024-02-26T18:44:55;10.20;69.55
77218;DHT22;66214;51.302;17.068;2024-02-26T18:47:30;10.18;69.54
77218;DHT22;66214;51.302;17.068;2024-02-26T18:50:04;10.14;69.44